createdAt,value
2023-02-24T00:02:04.386Z,53.90
2023-02-24T00:04:34.899Z,52.10
2023-02-24T00:07:02.941Z,53.90
2023-02-24T00:09:31.795Z,50.80
2023-02-24T00:12:08.792Z,50.80
2023-02-24T00:14:38.326Z,49.70
2023-02-24T00:17:09.931Z,51.30
2023-02-24T00:19:38.422Z,50.40
2023-02-24T00:22:07.674Z,51.20
2023-02-24T00:24:35.670Z,50.00
2023-02-24T00:27:08.283Z,51.60
2023-02-24T00:29:37.659Z,51.00
2023-02-24T00:32:08.330Z,52.70
2023-02-24T00:34:37.661Z,49.60
2023-02-24T00:37:06.987Z,53.10
2023-02-24T00:39:36.081Z,51.30
2023-02-24T00:42:05.946Z,51.80
2023-02-24T00:44:35.719Z,52.50
2023-02-24T00:47:05.241Z,50.00
2023-02-24T00:49:36.048Z,52.50
2023-02-24T00:52:08.086Z,51.60
2023-02-24T00:54:36.748Z,52.80
2023-02-24T00:57:04.419Z,52.80
2023-02-24T00:59:32.199Z,51.40
2023-02-24T01:02:03.783Z,51.40
2023-02-24T01:04:31.946Z,53.90
2023-02-24T01:07:02.669Z,53.50
2023-02-24T01:09:32.187Z,51.00
2023-02-24T01:12:38.944Z,52.70
2023-02-24T01:15:09.995Z,52.50
2023-02-24T01:17:37.886Z,51.50
2023-02-24T01:20:19.086Z,52.90
2023-02-24T01:22:53.538Z,52.80
2023-02-24T01:25:21.651Z,53.00
2023-02-24T01:27:49.463Z,53.10
2023-02-24T01:30:18.490Z,52.70
2023-02-24T01:32:47.323Z,53.90
2023-02-24T01:35:15.927Z,52.50
2023-02-24T01:37:43.595Z,53.20
2023-02-24T01:40:18.633Z,54.20
2023-02-24T01:42:47.725Z,56.60
2023-02-24T01:45:23.204Z,54.40
2023-02-24T01:47:51.834Z,54.00
2023-02-24T01:50:21.990Z,55.90
2023-02-24T01:52:56.050Z,57.50
2023-02-24T01:55:29.362Z,57.40
2023-02-24T01:57:59.449Z,58.10
2023-02-24T02:00:36.861Z,58.10
2023-02-24T02:03:09.676Z,59.30
2023-02-24T02:05:39.336Z,58.40
2023-02-24T02:08:09.240Z,58.70
2023-02-24T02:10:44.127Z,60.60
2023-02-24T02:13:14.407Z,60.10
2023-02-24T02:15:52.262Z,59.30
2023-02-24T02:18:41.198Z,59.00
2023-02-24T02:21:26.873Z,61.70
2023-02-24T02:24:20.138Z,60.70
2023-02-24T02:27:24.709Z,60.60
2023-02-24T02:30:28.177Z,61.70
2023-02-24T02:33:21.655Z,62.90
2023-02-24T02:36:13.847Z,64.10
2023-02-24T02:39:11.930Z,64.30
2023-02-24T02:42:35.515Z,64.20
2023-02-24T02:45:07.937Z,66.50
2023-02-24T02:47:44.533Z,68.20
2023-02-24T02:50:26.948Z,70.00
2023-02-24T02:53:18.454Z,68.60
2023-02-24T02:55:49.918Z,68.60
2023-02-24T02:58:20.278Z,70.40
2023-02-24T03:01:01.729Z,70.80
2023-02-24T03:03:33.016Z,72.80
2023-02-24T03:06:04.900Z,73.90
2023-02-24T03:08:37.286Z,74.80
2023-02-24T03:11:08.392Z,73.60
2023-02-24T03:13:42.853Z,77.10
2023-02-24T03:16:12.384Z,75.80
2023-02-24T03:18:56.811Z,76.20
2023-02-24T03:21:35.200Z,77.70
2023-02-24T03:24:05.611Z,78.70
2023-02-24T03:26:56.962Z,78.90
2023-02-24T03:29:37.553Z,79.20
2023-02-24T03:32:33.524Z,82.60
2023-02-24T03:35:08.604Z,82.80
2023-02-24T03:37:37.045Z,83.70
2023-02-24T03:40:11.985Z,82.10
2023-02-24T03:42:52.797Z,80.30
2023-02-24T03:45:23.146Z,82.40
2023-02-24T03:47:51.112Z,85.80
2023-02-24T03:50:21.955Z,82.40
2023-02-24T03:53:20.710Z,81.10
2023-02-24T03:56:22.391Z,81.40
2023-02-24T03:59:13.045Z,81.60
2023-02-24T04:01:56.075Z,82.40
2023-02-24T04:04:27.758Z,81.60
2023-02-24T04:07:19.486Z,83.50
2023-02-24T04:09:50.552Z,88.10
2023-02-24T04:12:23.262Z,85.00
2023-02-24T04:15:11.924Z,86.40
2023-02-24T04:17:50.105Z,81.60
2023-02-24T04:20:21.409Z,82.20
2023-02-24T04:22:57.970Z,80.00
2023-02-24T04:25:26.988Z,83.00
2023-02-24T04:27:58.900Z,80.30
2023-02-24T04:30:31.460Z,80.10
2023-02-24T04:32:59.225Z,79.80
2023-02-24T04:35:27.843Z,78.70
2023-02-24T04:37:57.100Z,79.50
2023-02-24T04:40:25.804Z,78.10
2023-02-24T04:42:53.943Z,78.30
2023-02-24T04:45:26.530Z,75.10
2023-02-24T04:48:04.551Z,78.00
2023-02-24T04:50:34.654Z,80.70
2023-02-24T04:53:07.222Z,79.70
2023-02-24T04:55:40.228Z,74.60
2023-02-24T04:58:11.477Z,75.20
2023-02-24T05:00:41.669Z,74.20
2023-02-24T05:03:11.719Z,70.40
2023-02-24T05:05:42.907Z,71.30
2023-02-24T05:08:10.614Z,71.20
2023-02-24T05:10:40.954Z,71.90
2023-02-24T05:13:09.262Z,71.00
2023-02-24T05:15:41.152Z,69.40
2023-02-24T05:18:14.042Z,78.10
2023-02-24T05:21:02.716Z,81.00
2023-02-24T05:23:34.642Z,86.10
2023-02-24T05:26:08.360Z,79.90
2023-02-24T05:28:40.878Z,77.00
2023-02-24T05:31:17.132Z,80.20
2023-02-24T05:33:49.361Z,75.30
2023-02-24T05:36:19.023Z,79.20
2023-02-24T05:38:48.828Z,82.00
2023-02-24T05:41:18.602Z,73.10
2023-02-24T05:43:48.265Z,76.80
2023-02-24T05:46:16.409Z,67.80
2023-02-24T05:48:44.547Z,66.20
2023-02-24T05:51:12.606Z,69.40
2023-02-24T05:53:42.878Z,85.00
2023-02-24T05:56:11.194Z,70.30
2023-02-24T05:58:45.180Z,76.20
2023-02-24T06:01:19.117Z,68.80
2023-02-24T06:03:47.971Z,69.30
2023-02-24T06:06:16.794Z,66.60
2023-02-24T06:08:50.150Z,73.30
2023-02-24T06:11:20.868Z,67.80
2023-02-24T06:13:49.148Z,67.10
2023-02-24T06:16:18.309Z,72.00
2023-02-24T06:18:49.496Z,76.40
2023-02-24T06:21:17.754Z,79.70
2023-02-24T06:23:45.438Z,75.80
2023-02-24T06:26:13.202Z,70.60
2023-02-24T06:28:43.243Z,71.80
2023-02-24T06:31:11.666Z,68.20
2023-02-24T06:33:40.283Z,66.40
2023-02-24T06:36:08.527Z,69.70
2023-02-24T06:38:37.227Z,67.60
2023-02-24T06:41:11.225Z,71.50
2023-02-24T06:43:40.681Z,73.40
2023-02-24T06:46:10.995Z,74.50
2023-02-24T06:48:39.259Z,75.40
2023-02-24T06:51:10.538Z,77.60
2023-02-24T06:53:43.185Z,82.10
2023-02-24T06:56:15.831Z,89.00
2023-02-24T06:58:45.401Z,85.30
2023-02-24T07:01:15.671Z,85.20
2023-02-24T07:04:02.375Z,85.40
2023-02-24T07:06:35.825Z,85.30
2023-02-24T07:09:07.206Z,86.70
2023-02-24T07:11:36.144Z,83.80
2023-02-24T07:14:07.788Z,83.70
2023-02-24T07:16:36.090Z,77.20
2023-02-24T07:19:11.268Z,86.80
2023-02-24T07:21:43.224Z,94.00
2023-02-24T07:24:20.335Z,84.40
2023-02-24T07:26:51.756Z,96.80
2023-02-24T07:29:19.409Z,95.30
2023-02-24T07:31:48.864Z,93.20
2023-02-24T07:34:23.498Z,87.90
2023-02-24T07:36:52.744Z,90.60
2023-02-24T07:39:23.170Z,91.40
2023-02-24T07:41:55.102Z,88.20
2023-02-24T07:44:25.812Z,92.20
2023-02-24T07:46:55.097Z,97.40
2023-02-24T07:49:28.012Z,91.50
2023-02-24T07:51:57.902Z,100.30
2023-02-24T07:54:30.069Z,94.10
2023-02-24T07:56:59.659Z,88.40
2023-02-24T07:59:30.230Z,97.90
2023-02-24T08:01:58.212Z,104.60
2023-02-24T08:04:30.249Z,103.80
2023-02-24T08:06:59.047Z,98.90
2023-02-24T08:09:44.397Z,91.10
2023-02-24T08:12:21.205Z,90.60
2023-02-24T08:14:51.905Z,93.30
2023-02-24T08:17:22.100Z,94.10
2023-02-24T08:20:11.966Z,89.30
2023-02-24T08:22:44.425Z,90.60
2023-02-24T08:25:18.998Z,93.10
2023-02-24T08:28:06.699Z,88.30
2023-02-24T08:30:44.936Z,84.10
2023-02-24T08:33:19.375Z,86.80
2023-02-24T08:35:52.308Z,88.30
2023-02-24T08:38:24.775Z,75.30
2023-02-24T08:40:55.724Z,86.40
2023-02-24T08:43:29.879Z,90.40
2023-02-24T08:46:13.230Z,85.70
2023-02-24T08:48:43.929Z,83.40
2023-02-24T08:51:29.018Z,84.80
2023-02-24T08:54:11.293Z,88.00
2023-02-24T08:56:43.545Z,73.10
2023-02-24T08:59:32.527Z,82.90
2023-02-24T09:02:18.541Z,70.30
2023-02-24T09:04:57.717Z,73.30
2023-02-24T09:07:28.948Z,74.30
2023-02-24T09:09:56.669Z,63.50
2023-02-24T09:12:26.461Z,56.30
2023-02-24T09:15:04.775Z,47.60
2023-02-24T09:17:49.874Z,32.70
2023-02-24T09:20:27.296Z,24.10
2023-02-24T09:22:57.884Z,19.50
2023-02-24T09:25:40.534Z,18.70
2023-02-24T09:28:17.540Z,20.00
2023-02-24T09:30:54.054Z,21.60
2023-02-24T09:33:39.300Z,21.20
2023-02-24T09:36:13.064Z,26.00
2023-02-24T09:39:01.173Z,25.40
2023-02-24T09:41:55.361Z,26.80
2023-02-24T09:44:38.354Z,28.40
2023-02-24T09:47:14.009Z,30.70
2023-02-24T09:49:46.433Z,32.00
2023-02-24T09:52:17.585Z,30.40
2023-02-24T09:55:18.975Z,33.80
2023-02-24T09:58:12.529Z,34.50
2023-02-24T10:00:44.253Z,34.40
2023-02-24T10:03:47.916Z,27.60
2023-02-24T10:06:20.805Z,31.10
2023-02-24T10:09:13.948Z,30.60
2023-02-24T10:11:53.571Z,31.70
2023-02-24T10:14:53.002Z,32.50
2023-02-24T10:17:24.687Z,32.20
2023-02-24T10:20:02.562Z,37.50
2023-02-24T10:22:57.893Z,42.50
2023-02-24T10:25:54.025Z,38.50
2023-02-24T10:28:45.994Z,42.30
2023-02-24T10:31:27.654Z,36.30
2023-02-24T10:34:26.559Z,40.50
2023-02-24T10:36:57.503Z,42.40
2023-02-24T10:39:25.749Z,37.90
2023-02-24T10:41:59.103Z,39.00
2023-02-24T10:44:36.241Z,40.70
2023-02-24T10:47:11.618Z,41.40
2023-02-24T10:50:12.533Z,42.10
2023-02-24T10:52:50.935Z,42.10
2023-02-24T10:55:39.841Z,42.10
2023-02-24T10:58:16.064Z,49.10
2023-02-24T11:01:06.221Z,49.00
2023-02-24T11:03:43.669Z,48.00
2023-02-24T11:06:30.866Z,49.10
2023-02-24T11:09:18.636Z,45.70
2023-02-24T11:12:06.076Z,47.10
2023-02-24T11:14:58.520Z,40.50
2023-02-24T11:17:27.061Z,41.60
2023-02-24T11:20:00.933Z,37.00
2023-02-24T11:22:35.698Z,34.00
2023-02-24T11:25:08.310Z,33.90
2023-02-24T11:27:36.015Z,31.40
2023-02-24T11:30:16.588Z,33.30
2023-02-24T11:33:00.891Z,33.70
2023-02-24T11:35:33.579Z,35.80
2023-02-24T11:38:27.820Z,40.90
2023-02-24T11:41:03.072Z,38.10
2023-02-24T11:43:33.629Z,43.00
2023-02-24T11:46:12.949Z,46.90
2023-02-24T11:48:48.213Z,47.00
2023-02-24T11:51:31.856Z,53.40
2023-02-24T11:54:12.297Z,46.90
2023-02-24T11:56:46.081Z,58.70
2023-02-24T11:59:36.865Z,49.80
2023-02-24T12:02:19.570Z,46.20
2023-02-24T12:05:09.652Z,47.00
2023-02-24T12:07:40.680Z,44.80
2023-02-24T12:10:27.996Z,43.60
2023-02-24T12:13:10.671Z,45.00
2023-02-24T12:16:15.671Z,42.50
2023-02-24T12:18:48.046Z,42.10
2023-02-24T12:21:23.640Z,45.40
2023-02-24T12:23:53.637Z,47.70
2023-02-24T12:26:47.933Z,44.20
2023-02-24T12:29:42.985Z,39.60
2023-02-24T12:32:25.889Z,41.20
2023-02-24T12:35:06.782Z,39.10
2023-02-24T12:37:51.111Z,35.90
2023-02-24T12:40:42.112Z,36.00
2023-02-24T12:43:21.754Z,34.60
2023-02-24T12:46:07.626Z,33.60
2023-02-24T12:48:56.090Z,32.00
2023-02-24T12:51:29.238Z,31.00
2023-02-24T12:54:24.557Z,29.10
2023-02-24T12:57:00.248Z,29.30
2023-02-24T12:59:32.330Z,29.20
2023-02-24T13:02:19.209Z,26.70
2023-02-24T13:05:16.880Z,25.30
2023-02-24T13:08:04.892Z,25.00
2023-02-24T13:11:04.648Z,25.30
2023-02-24T13:13:48.834Z,27.40
2023-02-24T13:16:29.474Z,20.40
2023-02-24T13:19:06.462Z,22.70
2023-02-24T13:21:34.317Z,21.80
2023-02-24T13:24:03.149Z,22.50
2023-02-24T13:26:32.389Z,24.00
2023-02-24T13:29:10.141Z,20.30
2023-02-24T13:31:44.125Z,21.60
2023-02-24T13:34:42.110Z,22.20
2023-02-24T13:37:10.182Z,23.10
2023-02-24T13:39:41.529Z,30.80
2023-02-24T13:42:24.972Z,32.10
2023-02-24T13:45:18.322Z,27.20
2023-02-24T13:48:02.924Z,22.90
2023-02-24T13:51:02.415Z,23.20
2023-02-24T13:53:39.736Z,29.40
2023-02-24T13:56:30.468Z,22.10
2023-02-24T13:59:08.448Z,27.70
2023-02-24T14:01:58.673Z,24.60
2023-02-24T14:04:29.547Z,26.60
2023-02-24T14:07:09.629Z,29.50
2023-02-24T14:09:39.746Z,19.50
2023-02-24T14:12:17.176Z,20.00
2023-02-24T14:14:46.254Z,22.10
2023-02-24T14:17:28.267Z,18.30
2023-02-24T14:20:09.082Z,21.60
2023-02-24T14:22:53.800Z,18.50
2023-02-24T14:25:23.277Z,20.50
2023-02-24T14:27:52.958Z,17.30
2023-02-24T14:30:34.205Z,18.80
2023-02-24T14:33:03.221Z,21.00
2023-02-24T14:35:30.785Z,22.00
2023-02-24T14:37:59.933Z,21.10
2023-02-24T14:40:28.651Z,19.50
2023-02-24T14:42:57.631Z,18.00
2023-02-24T14:45:27.796Z,22.20
2023-02-24T14:47:56.487Z,23.30
2023-02-24T14:50:28.299Z,19.60
2023-02-24T14:53:00.500Z,19.40
2023-02-24T14:55:40.214Z,21.00
2023-02-24T14:58:22.212Z,16.30
2023-02-24T15:00:55.153Z,13.30
2023-02-24T15:03:45.423Z,13.80
2023-02-24T15:06:19.816Z,15.60
2023-02-24T15:08:52.400Z,16.50
2023-02-24T15:11:23.186Z,14.50
2023-02-24T15:13:53.888Z,28.10
2023-02-24T15:16:28.442Z,16.80
2023-02-24T15:19:01.016Z,14.80
2023-02-24T15:21:32.108Z,16.10
2023-02-24T15:24:06.039Z,16.50
2023-02-24T15:26:34.752Z,19.00
2023-02-24T15:29:13.379Z,16.70
2023-02-24T15:31:47.180Z,19.40
2023-02-24T15:34:27.620Z,20.20
2023-02-24T15:37:05.910Z,20.00
2023-02-24T15:39:34.261Z,16.40
2023-02-24T15:42:07.989Z,15.30
2023-02-24T15:44:36.385Z,17.10
2023-02-24T15:47:23.130Z,15.70
2023-02-24T15:49:50.804Z,22.70
2023-02-24T15:52:27.735Z,16.40
2023-02-24T15:54:57.918Z,17.30
2023-02-24T15:57:26.236Z,17.00
2023-02-24T15:59:53.908Z,18.20
2023-02-24T16:02:23.697Z,17.70
2023-02-24T16:04:52.201Z,18.40
2023-02-24T16:07:31.983Z,25.30
2023-02-24T16:10:00.729Z,25.90
2023-02-24T16:12:32.408Z,26.00
2023-02-24T16:15:05.414Z,20.40
2023-02-24T16:17:35.638Z,20.60
2023-02-24T16:20:08.575Z,19.70
2023-02-24T16:22:36.361Z,24.40
2023-02-24T16:25:05.060Z,20.30
2023-02-24T16:27:33.466Z,20.30
2023-02-24T16:30:01.248Z,19.40
2023-02-24T16:32:29.103Z,23.10
2023-02-24T16:34:57.207Z,18.50
2023-02-24T16:37:29.323Z,18.20
2023-02-24T16:39:59.178Z,23.60
2023-02-24T16:42:26.939Z,20.70
2023-02-24T16:44:54.533Z,23.00
2023-02-24T16:47:23.394Z,18.90
2023-02-24T16:49:55.393Z,23.00
2023-02-24T16:52:24.944Z,18.90
2023-02-24T16:54:52.844Z,19.70
2023-02-24T16:57:25.389Z,21.60
2023-02-24T16:59:53.050Z,21.20
2023-02-24T17:02:23.693Z,20.40
2023-02-24T17:04:51.390Z,21.40
2023-02-24T17:07:20.910Z,24.60
2023-02-24T17:09:48.646Z,24.80
2023-02-24T17:12:21.704Z,22.60
2023-02-24T17:14:49.576Z,20.60
2023-02-24T17:17:17.344Z,23.00
2023-02-24T17:19:45.004Z,24.00
2023-02-24T17:22:12.625Z,23.80
2023-02-24T17:24:40.273Z,23.00
2023-02-24T17:27:07.875Z,23.20
2023-02-24T17:29:35.459Z,21.30
2023-02-24T17:32:03.403Z,20.20
2023-02-24T17:34:31.213Z,19.00
2023-02-24T17:36:59.001Z,17.50
2023-02-24T17:39:26.937Z,16.00
2023-02-24T17:41:55.335Z,17.70
2023-02-24T17:44:22.933Z,24.00
2023-02-24T17:46:52.162Z,41.70
2023-02-24T17:49:20.009Z,64.20
2023-02-24T17:51:47.622Z,40.70
2023-02-24T17:54:15.248Z,32.60
2023-02-24T17:56:42.853Z,34.50
2023-02-24T17:59:10.494Z,33.30
2023-02-24T18:01:38.065Z,33.10
2023-02-24T18:04:05.697Z,29.50
2023-02-24T18:06:33.508Z,26.90
2023-02-24T18:09:01.104Z,20.40
2023-02-24T18:11:28.753Z,17.40
2023-02-24T18:14:00.358Z,15.60
2023-02-24T18:16:28.549Z,16.50
2023-02-24T18:18:56.462Z,14.60
2023-02-24T18:21:24.155Z,18.40
2023-02-24T18:23:52.227Z,18.90
2023-02-24T18:26:21.998Z,22.00
2023-02-24T18:28:53.681Z,28.10
2023-02-24T18:31:23.599Z,25.10
2023-02-24T18:33:52.105Z,20.40
2023-02-24T18:36:20.132Z,20.40
2023-02-24T18:38:48.046Z,20.30
2023-02-24T18:41:20.037Z,21.50
2023-02-24T18:43:49.059Z,22.60
2023-02-24T18:46:17.371Z,18.50
2023-02-24T18:48:45.925Z,22.10
2023-02-24T18:51:15.430Z,22.90
2023-02-24T18:53:43.564Z,25.40
2023-02-24T18:56:17.059Z,23.30
2023-02-24T18:58:46.609Z,22.60
2023-02-24T19:01:22.771Z,20.30
2023-02-24T19:03:51.742Z,20.20
2023-02-24T19:06:20.797Z,20.40
2023-02-24T19:08:54.708Z,19.60
2023-02-24T19:11:22.348Z,21.90
2023-02-24T19:13:50.007Z,21.90
2023-02-24T19:16:17.991Z,21.80
2023-02-24T19:18:48.058Z,21.90
2023-02-24T19:21:15.710Z,23.20
2023-02-24T19:23:43.530Z,25.90
2023-02-24T19:26:22.665Z,23.20
2023-02-24T19:28:51.123Z,22.50
2023-02-24T19:31:25.062Z,22.50
2023-02-24T19:34:00.202Z,20.20
2023-02-24T19:36:29.152Z,21.30
2023-02-24T19:38:56.812Z,21.10
2023-02-24T19:41:24.613Z,20.50
2023-02-24T19:43:52.517Z,18.50
2023-02-24T19:46:20.447Z,20.90
2023-02-24T19:48:48.742Z,19.90
2023-02-24T19:51:19.306Z,20.60
2023-02-24T19:53:47.746Z,20.10
2023-02-24T19:56:15.350Z,18.70
2023-02-24T19:58:42.998Z,19.30
2023-02-24T20:01:13.236Z,19.30
2023-02-24T20:03:42.374Z,18.70
2023-02-24T20:06:25.728Z,18.60
2023-02-24T20:08:54.411Z,18.40
2023-02-24T20:11:22.828Z,17.80
2023-02-24T20:13:53.303Z,16.40
2023-02-24T20:16:24.910Z,17.60
2023-02-24T20:18:55.386Z,18.90
2023-02-24T20:21:23.211Z,17.10
2023-02-24T20:23:51.293Z,16.00
2023-02-24T20:26:18.978Z,16.40
2023-02-24T20:28:47.164Z,18.00
2023-02-24T20:31:18.524Z,19.00
2023-02-24T20:33:47.674Z,17.70
2023-02-24T20:36:26.553Z,19.20
2023-02-24T20:38:55.014Z,15.80
2023-02-24T20:41:22.752Z,17.30
2023-02-24T20:43:50.990Z,12.80
2023-02-24T20:46:25.444Z,12.50
2023-02-24T20:48:57.047Z,13.00
2023-02-24T20:51:25.810Z,13.50
2023-02-24T20:53:58.182Z,15.00
2023-02-24T20:56:28.463Z,13.80
2023-02-24T20:59:08.607Z,13.80
2023-02-24T21:01:36.531Z,12.80
2023-02-24T21:04:04.800Z,13.10
2023-02-24T21:06:32.583Z,17.20
2023-02-24T21:09:00.273Z,16.00
2023-02-24T21:11:30.231Z,17.40
2023-02-24T21:13:58.335Z,14.10
2023-02-24T21:16:27.044Z,15.70
2023-02-24T21:18:56.319Z,15.40
2023-02-24T21:21:24.574Z,14.70
2023-02-24T21:23:52.310Z,15.70
2023-02-24T21:26:20.219Z,15.10
2023-02-24T21:28:48.164Z,17.00
2023-02-24T21:31:18.199Z,15.30
2023-02-24T21:33:50.138Z,15.80
2023-02-24T21:36:20.881Z,15.80
2023-02-24T21:38:49.029Z,16.70
2023-02-24T21:41:19.334Z,15.60
2023-02-24T21:43:47.728Z,17.00
2023-02-24T21:46:16.050Z,15.90
2023-02-24T21:48:43.781Z,16.20
2023-02-24T21:51:12.793Z,17.10
2023-02-24T21:53:43.558Z,16.00
2023-02-24T21:56:17.459Z,16.10
2023-02-24T21:58:50.983Z,15.80
2023-02-24T22:01:21.664Z,15.40
2023-02-24T22:03:49.335Z,15.70
2023-02-24T22:06:20.279Z,16.80
2023-02-24T22:08:48.063Z,16.10
2023-02-24T22:11:17.110Z,15.90
2023-02-24T22:13:45.853Z,16.30
2023-02-24T22:16:18.160Z,17.80
2023-02-24T22:18:47.064Z,16.30
2023-02-24T22:21:19.799Z,17.80
2023-02-24T22:23:48.982Z,17.40
2023-02-24T22:26:17.073Z,16.40
2023-02-24T22:28:46.927Z,17.00
2023-02-24T22:31:16.953Z,16.40
2023-02-24T22:33:45.634Z,16.70
2023-02-24T22:36:16.886Z,18.70
2023-02-24T22:38:48.266Z,18.80
2023-02-24T22:41:18.229Z,19.20
2023-02-24T22:43:46.387Z,19.80
2023-02-24T22:46:16.563Z,19.30
2023-02-24T22:48:44.664Z,19.50
2023-02-24T22:51:13.380Z,20.90
2023-02-24T22:53:43.754Z,20.80
2023-02-24T22:56:12.720Z,21.00
2023-02-24T22:58:40.892Z,20.50
2023-02-24T23:01:29.211Z,21.50
2023-02-24T23:04:00.077Z,22.60
2023-02-24T23:06:29.115Z,21.50
2023-02-24T23:08:58.059Z,20.90
2023-02-24T23:11:34.966Z,21.60
2023-02-24T23:14:06.078Z,20.50
2023-02-24T23:16:35.626Z,20.60
2023-02-24T23:19:07.855Z,22.20
2023-02-24T23:21:38.496Z,20.10
2023-02-24T23:24:07.588Z,20.50
2023-02-24T23:26:38.186Z,20.90
2023-02-24T23:29:06.652Z,20.20
2023-02-24T23:31:34.374Z,19.90
2023-02-24T23:34:06.488Z,18.50
2023-02-24T23:36:40.216Z,20.60
2023-02-24T23:39:09.015Z,19.20
2023-02-24T23:41:37.616Z,20.90
2023-02-24T23:44:05.913Z,20.60
2023-02-24T23:46:34.721Z,20.30
2023-02-24T23:49:02.647Z,20.40
2023-02-24T23:51:45.769Z,19.30
2023-02-24T23:54:17.993Z,19.20
2023-02-24T23:56:46.407Z,21.20
2023-02-24T23:59:14.652Z,20.90
